createdAt,value
2019-02-15T00:00:44.950Z,53.80
2019-02-15T00:03:16.927Z,53.40
2019-02-15T00:05:49.806Z,53.40
2019-02-15T00:08:21.684Z,53.20
2019-02-15T00:10:53.789Z,53.30
2019-02-15T00:13:25.859Z,53.30
2019-02-15T00:15:57.712Z,53.40
2019-02-15T00:18:48.519Z,53.40
2019-02-15T00:21:22.807Z,53.20
2019-02-15T00:23:54.690Z,53.10
2019-02-15T00:26:26.544Z,53.00
2019-02-15T00:28:58.718Z,53.00
2019-02-15T00:31:30.748Z,53.20
2019-02-15T00:34:02.768Z,53.20
2019-02-15T00:36:34.626Z,53.40
2019-02-15T00:39:07.774Z,53.40
2019-02-15T00:41:39.627Z,53.50
2019-02-15T00:44:11.506Z,53.60
2019-02-15T00:47:06.241Z,53.60
2019-02-15T00:49:55.919Z,53.70
2019-02-15T00:52:47.306Z,53.80
2019-02-15T00:55:44.240Z,53.90
2019-02-15T00:58:41.030Z,54.10
2019-02-15T01:01:41.001Z,54.10
2019-02-15T01:04:18.374Z,54.00
2019-02-15T01:07:20.058Z,53.70
2019-02-15T01:10:12.279Z,53.60
2019-02-15T01:12:57.518Z,53.60
2019-02-15T01:15:29.386Z,53.90
2019-02-15T01:18:01.286Z,53.90
2019-02-15T01:20:33.143Z,54.00
2019-02-15T01:23:05.355Z,54.00
2019-02-15T01:25:49.388Z,54.00
2019-02-15T01:28:29.518Z,54.00
2019-02-15T01:31:14.965Z,53.90
2019-02-15T01:34:06.412Z,54.00
2019-02-15T01:37:15.378Z,54.00
2019-02-15T01:39:53.713Z,53.90
2019-02-15T01:42:31.335Z,53.90
2019-02-15T01:45:34.203Z,54.10
2019-02-15T01:48:06.068Z,54.10
2019-02-15T01:50:37.935Z,54.00
2019-02-15T01:53:09.798Z,54.00
2019-02-15T01:55:41.983Z,54.00
2019-02-15T01:58:13.836Z,54.00
2019-02-15T02:00:45.723Z,53.80
2019-02-15T02:03:17.626Z,53.70
2019-02-15T02:05:49.504Z,53.70
2019-02-15T02:08:24.807Z,53.60
2019-02-15T02:10:57.144Z,53.50
2019-02-15T02:13:28.997Z,53.50
2019-02-15T02:16:01.367Z,53.40
2019-02-15T02:18:33.218Z,53.30
2019-02-15T02:21:05.104Z,53.10
2019-02-15T02:23:36.986Z,53.20
2019-02-15T02:26:09.315Z,53.30
2019-02-15T02:28:41.166Z,53.50
2019-02-15T02:31:13.265Z,53.80
2019-02-15T02:33:45.103Z,54.00
2019-02-15T02:36:16.992Z,54.10
2019-02-15T02:38:48.866Z,53.90
2019-02-15T02:41:21.270Z,53.90
2019-02-15T02:43:59.452Z,54.00
2019-02-15T02:46:26.707Z,54.00
2019-02-15T02:48:58.552Z,54.30
2019-02-15T02:51:30.433Z,54.20
2019-02-15T02:54:02.272Z,54.30
2019-02-15T02:56:34.437Z,54.20
2019-02-15T02:59:06.295Z,54.00
2019-02-15T03:01:38.199Z,54.00
2019-02-15T03:04:10.045Z,53.80
2019-02-15T03:06:41.928Z,54.50
2019-02-15T03:09:13.773Z,54.00
2019-02-15T03:11:45.876Z,54.10
2019-02-15T03:14:17.710Z,54.20
2019-02-15T03:16:49.592Z,54.40
2019-02-15T03:19:21.452Z,54.40
2019-02-15T03:21:53.334Z,54.40
2019-02-15T03:24:25.179Z,54.70
2019-02-15T03:26:57.235Z,54.80
2019-02-15T03:29:29.088Z,54.90
2019-02-15T03:32:01.741Z,55.00
2019-02-15T03:34:36.128Z,55.00
2019-02-15T03:37:24.698Z,54.90
2019-02-15T03:40:01.311Z,54.70
2019-02-15T03:42:33.462Z,54.50
2019-02-15T03:45:05.405Z,54.40
2019-02-15T03:47:37.282Z,54.30
2019-02-15T03:50:09.560Z,54.10
2019-02-15T03:52:41.432Z,53.90
2019-02-15T03:55:13.273Z,53.80
2019-02-15T03:57:45.462Z,54.00
2019-02-15T04:00:17.312Z,54.20
2019-02-15T04:02:49.201Z,54.20
2019-02-15T04:05:21.055Z,54.20
2019-02-15T04:07:52.928Z,54.10
2019-02-15T04:10:24.771Z,54.10
2019-02-15T04:12:56.841Z,54.00
2019-02-15T04:15:28.693Z,54.10
2019-02-15T04:18:00.586Z,53.90
2019-02-15T04:20:32.438Z,54.50
2019-02-15T04:23:04.307Z,53.80
2019-02-15T04:25:36.136Z,53.70
2019-02-15T04:28:08.205Z,53.70
2019-02-15T04:30:40.066Z,53.90
2019-02-15T04:33:12.627Z,54.10
2019-02-15T04:35:44.492Z,54.00
2019-02-15T04:38:16.380Z,53.90
2019-02-15T04:40:48.231Z,54.00
2019-02-15T04:43:20.473Z,53.80
2019-02-15T04:45:52.319Z,53.70
2019-02-15T04:48:24.768Z,53.40
2019-02-15T04:50:56.616Z,53.50
2019-02-15T04:53:28.500Z,54.00
2019-02-15T04:56:00.334Z,54.20
2019-02-15T04:58:32.440Z,54.10
2019-02-15T05:01:04.278Z,53.80
2019-02-15T05:03:36.158Z,53.60
2019-02-15T05:06:08.017Z,53.60
2019-02-15T05:08:39.932Z,53.70
2019-02-15T05:11:11.789Z,53.60
2019-02-15T05:13:43.693Z,53.60
2019-02-15T05:16:15.577Z,53.40
2019-02-15T05:18:47.454Z,53.40
2019-02-15T05:21:20.228Z,53.30
2019-02-15T05:23:52.114Z,53.50
2019-02-15T05:26:24.001Z,53.50
2019-02-15T05:28:56.203Z,54.00
2019-02-15T05:31:28.092Z,54.20
2019-02-15T05:34:00.383Z,54.30
2019-02-15T05:36:32.249Z,54.40
2019-02-15T05:39:04.986Z,54.30
2019-02-15T05:41:36.834Z,54.30
2019-02-15T05:44:08.764Z,54.40
2019-02-15T05:46:40.787Z,54.40
2019-02-15T05:49:12.737Z,54.50
2019-02-15T05:51:44.657Z,54.70
2019-02-15T05:54:16.741Z,54.80
2019-02-15T05:56:48.595Z,55.20
2019-02-15T05:59:20.886Z,55.20
2019-02-15T06:01:52.766Z,55.30
2019-02-15T06:04:24.652Z,55.20
2019-02-15T06:06:56.510Z,55.20
2019-02-15T06:09:28.498Z,55.00
2019-02-15T06:12:00.345Z,55.00
2019-02-15T06:14:32.442Z,54.90
2019-02-15T06:17:04.293Z,54.60
2019-02-15T06:19:36.193Z,54.40
2019-02-15T06:22:08.039Z,54.20
2019-02-15T06:24:39.925Z,54.30
2019-02-15T06:27:11.837Z,55.00
2019-02-15T06:29:43.765Z,55.00
2019-02-15T06:32:15.622Z,55.30
2019-02-15T06:34:48.070Z,55.40
2019-02-15T06:37:19.965Z,55.60
2019-02-15T06:39:51.890Z,56.00
2019-02-15T06:42:23.773Z,56.10
2019-02-15T06:44:55.689Z,56.40
2019-02-15T06:47:27.529Z,56.40
2019-02-15T06:49:59.421Z,56.40
2019-02-15T06:52:31.262Z,56.40
2019-02-15T06:55:03.153Z,56.60
2019-02-15T06:57:35.010Z,56.50
2019-02-15T07:00:42.999Z,56.50
2019-02-15T07:03:25.670Z,57.50
2019-02-15T07:05:57.653Z,57.30
2019-02-15T07:08:29.519Z,57.90
2019-02-15T07:11:01.441Z,57.70
2019-02-15T07:13:34.735Z,57.40
2019-02-15T07:16:19.291Z,56.50
2019-02-15T07:18:51.322Z,55.90
2019-02-15T07:21:23.217Z,55.00
2019-02-15T07:23:55.069Z,54.50
2019-02-15T07:26:26.964Z,53.30
2019-02-15T07:28:58.829Z,51.80
2019-02-15T07:31:30.993Z,50.80
2019-02-15T07:34:02.845Z,49.60
2019-02-15T07:36:35.135Z,48.80
2019-02-15T07:45:02.785Z,47.50
2019-02-15T07:47:35.117Z,46.50
2019-02-15T07:50:10.433Z,46.00
2019-02-15T07:53:12.606Z,45.90
2019-02-15T07:55:44.499Z,45.30
2019-02-15T07:58:18.390Z,45.10
2019-02-15T08:00:50.275Z,44.20
2019-02-15T08:03:22.122Z,43.40
2019-02-15T08:05:54.385Z,43.50
2019-02-15T08:08:26.461Z,43.00
2019-02-15T08:10:58.361Z,42.30
2019-02-15T08:13:30.231Z,41.80
2019-02-15T08:16:02.880Z,41.70
2019-02-15T08:18:34.841Z,41.00
2019-02-15T08:21:06.901Z,40.30
2019-02-15T08:23:38.766Z,39.90
2019-02-15T08:26:10.648Z,39.30
2019-02-15T08:28:42.594Z,38.40
2019-02-15T08:31:14.478Z,38.60
2019-02-15T08:33:46.428Z,37.80
2019-02-15T08:36:18.340Z,37.10
2019-02-15T08:38:50.809Z,36.10
2019-02-15T08:41:22.703Z,35.90
2019-02-15T08:43:54.565Z,35.30
2019-02-15T08:46:26.459Z,33.90
2019-02-15T08:48:58.334Z,33.10
2019-02-15T08:51:30.533Z,32.10
2019-02-15T08:54:02.400Z,31.70
2019-02-15T08:56:34.294Z,31.40
2019-02-15T08:59:06.200Z,31.30
2019-02-15T09:01:38.080Z,30.30
2019-02-15T09:04:09.944Z,29.50
2019-02-15T09:06:42.210Z,28.40
2019-02-15T09:09:14.089Z,28.10
2019-02-15T09:11:45.961Z,27.70
2019-02-15T09:14:17.809Z,27.20
2019-02-15T09:16:49.699Z,26.60
2019-02-15T09:19:21.566Z,25.60
2019-02-15T09:21:53.776Z,24.50
2019-02-15T09:24:25.643Z,24.70
2019-02-15T09:26:59.187Z,23.90
2019-02-15T09:29:31.039Z,23.50
2019-02-15T09:32:02.970Z,22.40
2019-02-15T09:34:34.800Z,22.50
2019-02-15T09:37:06.979Z,22.10
2019-02-15T09:39:39.617Z,21.90
2019-02-15T09:42:11.552Z,21.00
2019-02-15T09:44:43.406Z,20.40
2019-02-15T09:47:15.323Z,20.20
2019-02-15T09:49:47.189Z,20.00
2019-02-15T09:52:19.102Z,19.60
2019-02-15T09:54:50.950Z,19.20
2019-02-15T09:57:22.838Z,19.20
2019-02-15T09:59:54.799Z,18.50
2019-02-15T10:02:26.754Z,18.10
2019-02-15T10:04:58.627Z,17.40
2019-02-15T10:07:30.730Z,15.90
2019-02-15T10:10:02.578Z,15.60
2019-02-15T10:12:34.476Z,15.00
2019-02-15T10:15:06.557Z,14.00
2019-02-15T10:17:38.452Z,13.80
2019-02-15T10:20:10.335Z,13.50
2019-02-15T10:22:42.244Z,13.30
2019-02-15T10:25:14.120Z,12.90
2019-02-15T10:27:46.012Z,12.60
2019-02-15T10:30:17.962Z,12.60
2019-02-15T10:32:49.855Z,11.70
2019-02-15T10:35:21.727Z,11.60
2019-02-15T10:37:53.630Z,11.70
2019-02-15T10:40:26.129Z,11.30
2019-02-15T10:42:58.009Z,10.80
2019-02-15T10:45:29.863Z,10.40
2019-02-15T10:48:01.728Z,9.10
2019-02-15T10:50:33.585Z,8.60
2019-02-15T10:53:05.780Z,8.90
2019-02-15T10:55:38.228Z,8.30
2019-02-15T10:58:10.110Z,8.20
2019-02-15T11:00:41.955Z,7.60
2019-02-15T11:03:13.896Z,9.30
2019-02-15T11:05:45.750Z,8.70
2019-02-15T11:08:17.810Z,9.10
2019-02-15T11:10:49.654Z,8.50
2019-02-15T11:13:21.576Z,8.40
2019-02-15T11:15:53.421Z,8.80
2019-02-15T11:18:25.335Z,9.00
2019-02-15T11:20:57.185Z,8.80
2019-02-15T11:23:29.405Z,8.80
2019-02-15T11:26:01.327Z,8.40
2019-02-15T11:28:33.190Z,9.00
2019-02-15T11:31:05.103Z,8.30
2019-02-15T11:33:37.670Z,8.10
2019-02-15T11:36:09.539Z,8.50
2019-02-15T11:38:41.589Z,7.80
2019-02-15T11:41:14.750Z,8.50
2019-02-15T11:43:46.636Z,8.10
2019-02-15T11:46:18.486Z,8.20
2019-02-15T11:48:50.381Z,9.00
2019-02-15T11:51:22.223Z,9.50
2019-02-15T11:53:54.129Z,9.50
2019-02-15T11:56:26.140Z,9.70
2019-02-15T11:58:58.007Z,9.40
2019-02-15T12:01:29.910Z,8.90
2019-02-15T12:04:01.791Z,9.10
2019-02-15T12:06:33.645Z,8.60
2019-02-15T12:09:06.336Z,8.50
2019-02-15T12:11:38.382Z,7.90
2019-02-15T12:14:10.270Z,7.70
2019-02-15T12:16:42.126Z,7.70
2019-02-15T12:19:14.022Z,7.60
2019-02-15T12:21:45.861Z,7.70
2019-02-15T12:24:18.139Z,7.90
2019-02-15T12:26:50.001Z,7.80
2019-02-15T12:29:21.858Z,7.20
2019-02-15T12:31:53.698Z,7.60
2019-02-15T12:34:25.576Z,7.40
2019-02-15T12:36:57.433Z,7.60
2019-02-15T12:39:29.707Z,7.30
2019-02-15T12:42:01.963Z,7.80
2019-02-15T12:44:33.942Z,8.40
2019-02-15T12:47:14.631Z,7.60
2019-02-15T12:49:39.379Z,7.90
2019-02-15T12:52:11.264Z,7.70
2019-02-15T12:54:44.527Z,7.50
2019-02-15T12:57:16.410Z,8.10
2019-02-15T12:59:48.287Z,8.10
2019-02-15T13:02:20.144Z,7.70
2019-02-15T13:04:52.036Z,7.60
2019-02-15T13:07:24.997Z,7.90
2019-02-15T13:09:58.176Z,7.80
2019-02-15T13:12:30.021Z,7.40
2019-02-15T13:15:01.909Z,7.30
2019-02-15T13:17:33.755Z,8.10
2019-02-15T13:20:05.685Z,7.30
2019-02-15T13:22:37.550Z,7.50
2019-02-15T13:25:09.672Z,7.60
2019-02-15T13:27:41.995Z,7.80
2019-02-15T13:30:14.075Z,8.10
2019-02-15T13:32:47.649Z,7.70
2019-02-15T13:35:19.868Z,7.60
2019-02-15T13:37:51.722Z,7.30
2019-02-15T13:40:23.650Z,7.40
2019-02-15T13:42:57.891Z,7.50
2019-02-15T13:45:31.944Z,8.00
2019-02-15T13:48:04.484Z,8.60
2019-02-15T13:50:36.427Z,8.50
2019-02-15T13:53:08.612Z,8.70
2019-02-15T13:55:41.057Z,8.80
2019-02-15T14:01:09.833Z,8.10
2019-02-15T14:03:43.197Z,7.70
2019-02-15T14:06:15.979Z,7.60
2019-02-15T14:08:48.109Z,7.40
2019-02-15T14:11:20.326Z,7.40
2019-02-15T14:13:52.404Z,7.50
2019-02-15T14:16:25.947Z,7.50
2019-02-15T14:18:59.461Z,8.30
2019-02-15T14:21:32.967Z,8.20
2019-02-15T14:24:05.221Z,7.80
2019-02-15T14:26:38.971Z,7.40
2019-02-15T14:29:12.114Z,7.60
2019-02-15T14:31:44.428Z,7.40
2019-02-15T14:34:16.527Z,7.00
2019-02-15T14:36:48.778Z,6.80
2019-02-15T14:39:22.218Z,6.70
2019-02-15T14:41:54.550Z,7.00
2019-02-15T14:44:30.905Z,7.20
2019-02-15T14:47:04.581Z,7.60
2019-02-15T14:49:39.417Z,7.50
2019-02-15T14:52:14.434Z,6.80
2019-02-15T14:54:48.488Z,7.50
2019-02-15T14:57:23.664Z,7.40
2019-02-15T14:59:55.916Z,7.00
2019-02-15T15:02:28.126Z,7.20
2019-02-15T15:05:00.491Z,7.20
2019-02-15T15:07:34.094Z,7.60
2019-02-15T15:10:07.491Z,7.40
2019-02-15T15:12:39.896Z,7.70
2019-02-15T15:15:13.218Z,8.10
2019-02-15T15:17:45.469Z,8.40
2019-02-15T15:20:17.366Z,9.80
2019-02-15T15:22:49.264Z,10.90
2019-02-15T15:25:21.119Z,12.80
2019-02-15T15:27:53.294Z,14.00
2019-02-15T15:30:25.171Z,15.50
2019-02-15T15:32:57.087Z,16.40
2019-02-15T15:35:28.959Z,17.50
2019-02-15T15:38:00.956Z,18.00
2019-02-15T15:40:32.828Z,18.80
2019-02-15T15:43:04.759Z,19.70
2019-02-15T15:45:37.021Z,20.50
2019-02-15T15:48:08.908Z,21.10
2019-02-15T15:50:40.858Z,21.50
2019-02-15T15:53:12.942Z,21.90
2019-02-15T15:55:45.057Z,23.30
2019-02-15T15:58:17.346Z,24.50
2019-02-15T16:00:49.285Z,26.80
2019-02-15T16:03:21.213Z,27.70
2019-02-15T16:05:53.187Z,28.50
2019-02-15T16:08:26.271Z,29.50
2019-02-15T16:10:58.476Z,30.10
2019-02-15T16:13:30.569Z,30.70
2019-02-15T16:16:02.592Z,31.70
2019-02-15T16:18:35.919Z,31.70
2019-02-15T16:21:08.027Z,32.20
2019-02-15T16:23:40.386Z,33.40
2019-02-15T16:26:12.567Z,33.60
2019-02-15T16:28:44.754Z,34.60
2019-02-15T16:31:17.412Z,35.20
2019-02-15T16:33:50.516Z,35.30
2019-02-15T16:36:22.361Z,36.70
2019-02-15T16:38:54.906Z,37.00
2019-02-15T16:41:28.262Z,37.60
2019-02-15T16:44:02.056Z,38.30
2019-02-15T16:46:34.097Z,39.50
2019-02-15T16:49:06.089Z,38.90
2019-02-15T16:51:37.950Z,39.20
2019-02-15T16:54:09.840Z,39.20
2019-02-15T16:56:43.758Z,40.10
2019-02-15T16:59:15.708Z,39.60
2019-02-15T17:01:47.620Z,39.70
2019-02-15T17:04:19.518Z,39.70
2019-02-15T17:06:51.864Z,39.90
2019-02-15T17:09:24.879Z,39.90
2019-02-15T17:11:57.470Z,39.90
2019-02-15T17:14:31.095Z,39.90
2019-02-15T17:17:03.666Z,39.80
2019-02-15T17:19:35.682Z,40.10
2019-02-15T17:22:07.641Z,40.10
2019-02-15T17:24:39.502Z,40.10
2019-02-15T17:27:11.337Z,40.10
2019-02-15T17:29:44.890Z,40.30
2019-02-15T17:32:18.162Z,40.50
2019-02-15T17:34:50.814Z,40.80
2019-02-15T17:37:22.660Z,41.20
2019-02-15T17:39:54.657Z,41.40
2019-02-15T17:42:26.509Z,41.60
2019-02-15T17:44:58.705Z,41.70
2019-02-15T17:47:30.962Z,42.00
2019-02-15T17:50:02.851Z,42.30
2019-02-15T17:52:34.711Z,42.70
2019-02-15T17:55:06.684Z,42.60
2019-02-15T17:57:38.621Z,42.90
2019-02-15T18:00:12.835Z,43.20
2019-02-15T18:02:44.680Z,43.40
2019-02-15T18:05:19.585Z,43.60
2019-02-15T18:07:51.438Z,44.10
2019-02-15T18:10:23.314Z,44.10
2019-02-15T18:12:55.228Z,44.10
2019-02-15T18:15:27.354Z,44.20
2019-02-15T18:17:59.276Z,44.50
2019-02-15T18:20:31.145Z,44.80
2019-02-15T18:23:03.039Z,45.00
2019-02-15T18:25:34.924Z,45.00
2019-02-15T18:28:06.831Z,45.10
2019-02-15T18:30:38.908Z,45.10
2019-02-15T18:33:10.777Z,45.00
2019-02-15T18:35:42.675Z,45.20
2019-02-15T18:38:14.524Z,45.30
2019-02-15T18:40:46.427Z,45.70
2019-02-15T18:43:18.292Z,45.90
2019-02-15T18:45:50.250Z,46.10
2019-02-15T18:48:22.549Z,46.30
2019-02-15T18:50:54.455Z,46.50
2019-02-15T18:53:26.306Z,46.50
2019-02-15T18:55:58.196Z,46.60
2019-02-15T18:58:30.067Z,46.60
2019-02-15T19:01:02.000Z,46.80
2019-02-15T19:03:33.827Z,46.90
2019-02-15T19:06:05.697Z,47.20
2019-02-15T19:08:37.540Z,47.40
2019-02-15T19:11:09.456Z,47.50
2019-02-15T19:13:41.316Z,48.00
2019-02-15T19:16:13.260Z,48.20
2019-02-15T19:18:45.113Z,48.40
2019-02-15T19:21:17.003Z,48.50
2019-02-15T19:23:48.863Z,48.50
2019-02-15T19:26:20.737Z,48.50
2019-02-15T19:28:52.591Z,48.60
2019-02-15T19:31:24.889Z,48.80
2019-02-15T19:33:56.788Z,49.00
2019-02-15T19:36:28.780Z,49.00
2019-02-15T19:39:00.638Z,49.00
2019-02-15T19:41:32.513Z,49.10
2019-02-15T19:44:04.389Z,49.10
2019-02-15T19:46:36.562Z,49.20
2019-02-15T19:49:09.194Z,49.30
2019-02-15T19:51:41.106Z,49.30
2019-02-15T19:54:12.949Z,49.40
2019-02-15T19:56:44.947Z,49.40
2019-02-15T19:59:16.792Z,49.50
2019-02-15T20:01:49.050Z,49.80
2019-02-15T20:04:20.967Z,49.90
2019-02-15T20:06:52.833Z,49.90
2019-02-15T20:09:24.673Z,49.90
2019-02-15T20:11:57.313Z,50.00
2019-02-15T20:14:29.643Z,50.00
2019-02-15T20:17:03.421Z,50.00
2019-02-15T20:19:36.193Z,49.90
2019-02-15T20:22:08.138Z,50.00
2019-02-15T20:24:40.046Z,50.90
2019-02-15T20:27:11.967Z,50.40
2019-02-15T20:29:49.430Z,50.50
2019-02-15T20:32:18.152Z,50.50
2019-02-15T20:34:50.586Z,50.60
2019-02-15T20:37:23.014Z,50.60
2019-02-15T20:39:55.216Z,50.80
2019-02-15T20:42:27.093Z,50.90
2019-02-15T20:44:58.939Z,51.00
2019-02-15T20:47:30.873Z,50.80
2019-02-15T20:50:02.891Z,50.80
2019-02-15T20:52:34.769Z,50.80
2019-02-15T20:55:08.408Z,50.90
2019-02-15T20:57:40.411Z,51.00
2019-02-15T21:00:18.640Z,51.10
2019-02-15T21:02:50.643Z,50.90
2019-02-15T21:05:23.238Z,51.00
2019-02-15T21:07:55.785Z,50.90
2019-02-15T21:10:27.803Z,51.00
2019-02-15T21:12:59.681Z,50.20
2019-02-15T21:15:31.541Z,50.80
2019-02-15T21:18:03.841Z,51.00
2019-02-15T21:20:37.742Z,51.10
2019-02-15T21:23:19.457Z,51.10
2019-02-15T21:25:51.370Z,51.30
2019-02-15T21:28:23.279Z,51.90
2019-02-15T21:30:55.402Z,52.30
2019-02-15T21:33:27.589Z,52.40
2019-02-15T21:35:59.480Z,52.50
2019-02-15T21:38:31.401Z,52.30
2019-02-15T21:41:03.258Z,52.10
2019-02-15T21:43:35.165Z,52.10
2019-02-15T21:46:07.027Z,52.10
2019-02-15T21:48:39.097Z,52.00
2019-02-15T21:51:11.594Z,52.00
2019-02-15T21:53:43.636Z,52.00
2019-02-15T21:56:15.560Z,52.10
2019-02-15T21:58:47.459Z,51.90
2019-02-15T22:01:19.311Z,52.00
2019-02-15T22:03:51.489Z,51.90
2019-02-15T22:06:24.399Z,52.00
2019-02-15T22:08:56.277Z,52.10
2019-02-15T22:11:28.160Z,52.40
2019-02-15T22:14:00.057Z,52.00
2019-02-15T22:16:31.892Z,52.00
2019-02-15T22:19:04.100Z,51.90
2019-02-15T22:21:35.972Z,51.90
2019-02-15T22:24:07.872Z,52.00
2019-02-15T22:26:39.818Z,52.20
2019-02-15T22:29:12.942Z,52.30
2019-02-15T22:31:44.991Z,52.30
2019-02-15T22:34:17.611Z,52.30
2019-02-15T22:36:49.486Z,52.40
2019-02-15T22:39:21.396Z,52.60
2019-02-15T22:41:53.256Z,52.70
2019-02-15T22:44:25.155Z,52.60
2019-02-15T22:46:57.032Z,52.40
2019-02-15T22:49:28.958Z,52.50
2019-02-15T22:52:01.823Z,52.40
2019-02-15T22:54:34.108Z,52.10
2019-02-15T22:57:06.119Z,51.90
2019-02-15T22:59:38.168Z,51.90
2019-02-15T23:02:10.236Z,52.10
2019-02-15T23:04:42.701Z,52.30
2019-02-15T23:07:14.547Z,52.50
2019-02-15T23:09:46.623Z,52.70
2019-02-15T23:12:18.484Z,52.50
2019-02-15T23:14:50.400Z,52.60
2019-02-15T23:17:22.261Z,52.80
2019-02-15T23:19:54.331Z,52.70
2019-02-15T23:22:27.249Z,52.80
2019-02-15T23:25:00.362Z,53.00
2019-02-15T23:27:32.421Z,53.00
2019-02-15T23:30:04.376Z,52.90
2019-02-15T23:32:36.233Z,53.10
2019-02-15T23:35:08.612Z,53.00
2019-02-15T23:37:40.486Z,52.90
2019-02-15T23:40:12.394Z,53.00
2019-02-15T23:42:44.557Z,53.00
2019-02-15T23:45:16.447Z,52.80
2019-02-15T23:47:48.558Z,52.90
2019-02-15T23:50:20.791Z,53.40
2019-02-15T23:52:52.971Z,53.60
2019-02-15T23:55:24.855Z,53.80
2019-02-15T23:57:56.753Z,54.30
